EHSA

Euro Platform

Euro Platform, The Netherlands
METAR EHSA 231425Z AUTO 01020KT //// // ///////// 13/11 Q1020 RE// W11/H11
Observed Flight Rules
May-23 @ 14:25 UTC (38 minutes ago)
Wind
10° at 20 knots
Temperatures Readings
Current 13°C / 55°F
Dewpoint 11°C / 52°F
Humidity 88%
Altimeter 30.12" Hg
Pressure 1020 hPa
Elevation 50
METAR EHSA 231425Z AUTO 01020KT //// // ///////// 13/11 Q1020 RE// W11/H11
Observed Flight Rules
May-23 @ 14:25 UTC
(38 minutes ago)
Wind
10° at 20 knots
Temperature Dewpoint
13°C / 55°F 11°C / 52°F
Humidity Altimeter Pressure
88% 30.12" Hg 1020 hPa